sensor_id;sensor_type;location;lat;lon;timestamp;pressure;altitude;pressure_sealevel;temperature;humidity
62680;BME280;68213;40.528;44.712;2023-09-12T00:00:42;80356.34;;;8.65;77.17
62680;BME280;68213;40.528;44.712;2023-09-12T00:01:43;80357.72;;;8.66;77.05
62680;BME280;68213;40.528;44.712;2023-09-12T00:02:47;80359.88;;;8.69;76.89
62680;BME280;68213;40.528;44.712;2023-09-12T00:03:48;80357.34;;;8.71;77.04
62680;BME280;68213;40.528;44.712;2023-09-12T00:04:49;80352.91;;;8.74;77.28
62680;BME280;68213;40.528;44.712;2023-09-12T00:05:55;80325.09;;;8.57;77.21
62680;BME280;68213;40.528;44.712;2023-09-12T00:06:59;80351.56;;;8.73;77.45
62680;BME280;68213;40.528;44.712;2023-09-12T00:08:00;80331.38;;;8.64;77.67
62680;BME280;68213;40.528;44.712;2023-09-12T00:09:00;80346.53;;;8.77;77.57
62680;BME280;68213;40.528;44.712;2023-09-12T00:10:01;80355.53;;;8.74;78.06
62680;BME280;68213;40.528;44.712;2023-09-12T00:12:06;80351.75;;;8.65;78.50
62680;BME280;68213;40.528;44.712;2023-09-12T00:13:08;80331.03;;;8.46;78.90
62680;BME280;68213;40.528;44.712;2023-09-12T00:14:09;80345.53;;;8.59;78.87
62680;BME280;68213;40.528;44.712;2023-09-12T00:15:09;80349.50;;;8.60;79.09
62680;BME280;68213;40.528;44.712;2023-09-12T00:16:10;80345.84;;;8.65;78.64
62680;BME280;68213;40.528;44.712;2023-09-12T00:17:11;80342.19;;;8.70;78.24
62680;BME280;68213;40.528;44.712;2023-09-12T00:18:12;80348.22;;;8.72;78.66
62680;BME280;68213;40.528;44.712;2023-09-12T00:19:12;80345.84;;;8.77;78.24
62680;BME280;68213;40.528;44.712;2023-09-12T00:20:14;80345.94;;;8.79;78.22
62680;BME280;68213;40.528;44.712;2023-09-12T00:21:15;80354.63;;;8.81;78.31
62680;BME280;68213;40.528;44.712;2023-09-12T00:22:16;80347.78;;;8.76;78.80
62680;BME280;68213;40.528;44.712;2023-09-12T00:23:17;80354.28;;;8.63;80.20
62680;BME280;68213;40.528;44.712;2023-09-12T00:24:18;80354.97;;;8.76;79.41
62680;BME280;68213;40.528;44.712;2023-09-12T00:25:19;80347.31;;;8.80;78.54
62680;BME280;68213;40.528;44.712;2023-09-12T00:26:19;80349.00;;;8.87;78.35
62680;BME280;68213;40.528;44.712;2023-09-12T00:27:20;80345.94;;;8.91;78.26
62680;BME280;68213;40.528;44.712;2023-09-12T00:28:21;80327.59;;;8.79;77.96
62680;BME280;68213;40.528;44.712;2023-09-12T00:29:22;80352.22;;;8.97;77.60
62680;BME280;68213;40.528;44.712;2023-09-12T00:30:23;80346.38;;;8.99;77.40
62680;BME280;68213;40.528;44.712;2023-09-12T00:31:23;80354.25;;;8.99;77.70
62680;BME280;68213;40.528;44.712;2023-09-12T00:32:24;80350.50;;;9.02;77.47
62680;BME280;68213;40.528;44.712;2023-09-12T00:33:24;80349.78;;;9.01;77.63
62680;BME280;68213;40.528;44.712;2023-09-12T00:34:25;80349.34;;;9.05;77.62
62680;BME280;68213;40.528;44.712;2023-09-12T00:35:27;80351.50;;;9.09;77.21
62680;BME280;68213;40.528;44.712;2023-09-12T00:36:27;80351.88;;;9.03;77.89
62680;BME280;68213;40.528;44.712;2023-09-12T00:37:28;80348.88;;;9.09;77.77
62680;BME280;68213;40.528;44.712;2023-09-12T00:38:29;80348.31;;;9.10;77.52
62680;BME280;68213;40.528;44.712;2023-09-12T00:39:30;80347.06;;;9.11;77.63
62680;BME280;68213;40.528;44.712;2023-09-12T00:40:30;80349.31;;;9.17;77.55
62680;BME280;68213;40.528;44.712;2023-09-12T00:41:31;80354.00;;;9.18;77.44
62680;BME280;68213;40.528;44.712;2023-09-12T00:42:32;80365.63;;;9.15;77.83
62680;BME280;68213;40.528;44.712;2023-09-12T00:43:32;80371.59;;;9.04;77.72
62680;BME280;68213;40.528;44.712;2023-09-12T00:44:33;80359.03;;;9.02;77.75
62680;BME280;68213;40.528;44.712;2023-09-12T00:45:34;80351.06;;;9.00;77.88
62680;BME280;68213;40.528;44.712;2023-09-12T00:46:36;80350.63;;;9.04;77.78
62680;BME280;68213;40.528;44.712;2023-09-12T00:47:40;80347.63;;;9.10;77.50
62680;BME280;68213;40.528;44.712;2023-09-12T00:48:44;80347.16;;;9.13;77.44
62680;BME280;68213;40.528;44.712;2023-09-12T00:49:52;80342.59;;;9.14;77.69
62680;BME280;68213;40.528;44.712;2023-09-12T00:50:55;80339.41;;;9.15;77.29
62680;BME280;68213;40.528;44.712;2023-09-12T00:52:00;80336.66;;;9.13;77.31
62680;BME280;68213;40.528;44.712;2023-09-12T00:53:03;80341.91;;;9.13;78.60
62680;BME280;68213;40.528;44.712;2023-09-12T00:54:04;80344.88;;;9.19;78.00
62680;BME280;68213;40.528;44.712;2023-09-12T00:55:07;80344.88;;;9.19;78.25
62680;BME280;68213;40.528;44.712;2023-09-12T00:56:09;80347.72;;;9.24;78.34
62680;BME280;68213;40.528;44.712;2023-09-12T00:57:10;80353.06;;;9.26;77.71
62680;BME280;68213;40.528;44.712;2023-09-12T00:58:11;80351.81;;;9.27;77.26
62680;BME280;68213;40.528;44.712;2023-09-12T00:59:13;80351.25;;;9.28;77.07
62680;BME280;68213;40.528;44.712;2023-09-12T01:00:15;80352.03;;;9.31;77.01
62680;BME280;68213;40.528;44.712;2023-09-12T01:01:17;80353.41;;;9.32;77.05
62680;BME280;68213;40.528;44.712;2023-09-12T01:02:19;80350.78;;;9.32;77.28
62680;BME280;68213;40.528;44.712;2023-09-12T01:03:22;80339.19;;;9.23;77.00
62680;BME280;68213;40.528;44.712;2023-09-12T01:04:23;80349.53;;;9.33;76.66
62680;BME280;68213;40.528;44.712;2023-09-12T01:06:29;80350.31;;;9.35;76.52
62680;BME280;68213;40.528;44.712;2023-09-12T01:07:29;80348.94;;;9.34;76.52
62680;BME280;68213;40.528;44.712;2023-09-12T01:08:33;80348.94;;;9.34;76.67
62680;BME280;68213;40.528;44.712;2023-09-12T01:09:34;80355.09;;;9.39;76.54
62680;BME280;68213;40.528;44.712;2023-09-12T01:10:35;80356.47;;;9.40;76.38
62680;BME280;68213;40.528;44.712;2023-09-12T01:11:36;80359.75;;;9.41;76.66
62680;BME280;68213;40.528;44.712;2023-09-12T01:12:37;80335.28;;;9.24;76.61
62680;BME280;68213;40.528;44.712;2023-09-12T01:13:41;80360.47;;;9.41;76.67
62680;BME280;68213;40.528;44.712;2023-09-12T01:14:42;80353.94;;;9.42;76.67
62680;BME280;68213;40.528;44.712;2023-09-12T01:15:43;80357.94;;;9.43;76.67
62680;BME280;68213;40.528;44.712;2023-09-12T01:16:44;80357.84;;;9.41;76.63
62680;BME280;68213;40.528;44.712;2023-09-12T01:17:45;80355.31;;;9.43;76.71
62680;BME280;68213;40.528;44.712;2023-09-12T01:18:46;80360.56;;;9.43;77.04
62680;BME280;68213;40.528;44.712;2023-09-12T01:19:47;80350.75;;;9.44;77.08
62680;BME280;68213;40.528;44.712;2023-09-12T01:26:35;80351.66;;;9.48;77.36
62680;BME280;68213;40.528;44.712;2023-09-12T01:27:46;80346.41;;;9.48;77.24
62680;BME280;68213;40.528;44.712;2023-09-12T01:28:50;80360.19;;;9.49;76.99
62680;BME280;68213;40.528;44.712;2023-09-12T01:29:56;80350.66;;;9.30;78.89
62680;BME280;68213;40.528;44.712;2023-09-12T01:30:58;80356.63;;;9.18;79.80
62680;BME280;68213;40.528;44.712;2023-09-12T01:32:01;80358.31;;;9.26;78.67
62680;BME280;68213;40.528;44.712;2023-09-12T01:33:03;80352.28;;;9.23;78.80
62680;BME280;68213;40.528;44.712;2023-09-12T01:34:11;80353.78;;;9.14;79.88
62680;BME280;68213;40.528;44.712;2023-09-12T01:35:11;80351.03;;;9.12;80.35
62680;BME280;68213;40.528;44.712;2023-09-12T01:36:12;80332.34;;;9.06;79.79
62680;BME280;68213;40.528;44.712;2023-09-12T01:37:16;80342.16;;;9.17;78.88
62680;BME280;68213;40.528;44.712;2023-09-12T01:38:17;80342.63;;;9.02;81.55
62680;BME280;68213;40.528;44.712;2023-09-12T01:39:17;80349.44;;;9.07;80.82
62680;BME280;68213;40.528;44.712;2023-09-12T01:40:24;80343.31;;;8.91;81.27
62680;BME280;68213;40.528;44.712;2023-09-12T01:41:29;80338.78;;;8.91;82.08
62680;BME280;68213;40.528;44.712;2023-09-12T01:42:36;80346.84;;;8.95;82.07
62680;BME280;68213;40.528;44.712;2023-09-12T01:43:41;80346.06;;;8.93;82.12
62680;BME280;68213;40.528;44.712;2023-09-12T01:44:55;80322.81;;;8.75;81.91
62680;BME280;68213;40.528;44.712;2023-09-12T01:45:58;80348.09;;;8.94;81.55
62680;BME280;68213;40.528;44.712;2023-09-12T01:47:03;80354.03;;;8.95;80.94
62680;BME280;68213;40.528;44.712;2023-09-12T01:48:06;80347.63;;;8.98;80.50
62680;BME280;68213;40.528;44.712;2023-09-12T01:49:08;80350.25;;;8.98;80.55
62680;BME280;68213;40.528;44.712;2023-09-12T01:50:12;80354.50;;;9.03;80.35
62680;BME280;68213;40.528;44.712;2023-09-12T01:51:14;80354.56;;;9.05;79.87
62680;BME280;68213;40.528;44.712;2023-09-12T01:52:16;80361.31;;;9.08;79.81
62680;BME280;68213;40.528;44.712;2023-09-12T01:53:17;80332.16;;;8.90;80.03
62680;BME280;68213;40.528;44.712;2023-09-12T01:54:19;80352.19;;;9.09;79.94
62680;BME280;68213;40.528;44.712;2023-09-12T01:55:21;80349.69;;;9.11;80.09
62680;BME280;68213;40.528;44.712;2023-09-12T01:56:23;80349.56;;;9.09;79.81
62680;BME280;68213;40.528;44.712;2023-09-12T01:57:24;80342.75;;;9.04;79.38
62680;BME280;68213;40.528;44.712;2023-09-12T01:58:25;80348.78;;;9.07;79.44
62680;BME280;68213;40.528;44.712;2023-09-12T01:59:29;80345.47;;;9.06;79.63
62680;BME280;68213;40.528;44.712;2023-09-12T02:00:30;80348.19;;;9.08;80.00
62680;BME280;68213;40.528;44.712;2023-09-12T02:01:31;80353.56;;;9.10;79.72
62680;BME280;68213;40.528;44.712;2023-09-12T02:02:32;80339.88;;;9.12;79.60
62680;BME280;68213;40.528;44.712;2023-09-12T02:03:34;80339.19;;;9.11;78.83
62680;BME280;68213;40.528;44.712;2023-09-12T02:04:35;80337.81;;;9.10;78.67
62680;BME280;68213;40.528;44.712;2023-09-12T02:05:37;80335.31;;;9.12;78.33
62680;BME280;68213;40.528;44.712;2023-09-12T02:06:40;80336.47;;;9.09;78.55
62680;BME280;68213;40.528;44.712;2023-09-12T02:07:41;80314.84;;;8.97;78.52
62680;BME280;68213;40.528;44.712;2023-09-12T02:08:42;80337.81;;;9.10;78.47
62680;BME280;68213;40.528;44.712;2023-09-12T02:09:43;80327.09;;;9.06;78.69
62680;BME280;68213;40.528;44.712;2023-09-12T02:10:43;80332.59;;;9.10;78.61
62680;BME280;68213;40.528;44.712;2023-09-12T02:11:44;80332.78;;;9.14;78.29
62680;BME280;68213;40.528;44.712;2023-09-12T02:12:45;80328.81;;;9.13;78.76
62680;BME280;68213;40.528;44.712;2023-09-12T02:13:52;80336.47;;;9.09;78.68
62680;BME280;68213;40.528;44.712;2023-09-12T02:14:53;80333.25;;;9.11;78.64
62680;BME280;68213;40.528;44.712;2023-09-12T02:16:02;80340.44;;;9.10;79.05
62680;BME280;68213;40.528;44.712;2023-09-12T02:17:03;80342.84;;;9.06;79.02
62680;BME280;68213;40.528;44.712;2023-09-12T02:18:04;80341.25;;;9.01;80.25
62680;BME280;68213;40.528;44.712;2023-09-12T02:19:05;80337.25;;;9.00;80.47
62680;BME280;68213;40.528;44.712;2023-09-12T02:20:07;80342.06;;;9.03;80.58
62680;BME280;68213;40.528;44.712;2023-09-12T02:21:08;80338.97;;;9.07;79.86
62680;BME280;68213;40.528;44.712;2023-09-12T02:22:09;80350.16;;;9.08;79.51
62680;BME280;68213;40.528;44.712;2023-09-12T02:23:10;80344.31;;;9.09;80.08
62680;BME280;68213;40.528;44.712;2023-09-12T02:24:10;80339.09;;;9.09;80.25
62680;BME280;68213;40.528;44.712;2023-09-12T02:25:11;80352.19;;;9.09;81.30
62680;BME280;68213;40.528;44.712;2023-09-12T02:26:12;80343.75;;;8.99;81.46
62680;BME280;68213;40.528;44.712;2023-09-12T02:27:12;80349.16;;;8.77;82.27
62680;BME280;68213;40.528;44.712;2023-09-12T02:28:13;80345.84;;;8.88;82.31
62680;BME280;68213;40.528;44.712;2023-09-12T02:29:13;80346.97;;;8.97;81.72
62680;BME280;68213;40.528;44.712;2023-09-12T02:30:14;80347.19;;;9.01;81.69
62680;BME280;68213;40.528;44.712;2023-09-12T02:31:15;80355.84;;;9.04;81.40
62680;BME280;68213;40.528;44.712;2023-09-12T02:32:15;80348.09;;;9.06;81.31
62680;BME280;68213;40.528;44.712;2023-09-12T02:33:16;80355.41;;;9.08;81.33
62680;BME280;68213;40.528;44.712;2023-09-12T02:34:17;80356.06;;;9.08;81.46
62680;BME280;68213;40.528;44.712;2023-09-12T02:35:17;80354.94;;;9.11;81.45
62680;BME280;68213;40.528;44.712;2023-09-12T02:36:18;80365.50;;;9.13;81.38
62680;BME280;68213;40.528;44.712;2023-09-12T02:37:19;80359.59;;;9.13;81.65
62680;BME280;68213;40.528;44.712;2023-09-12T02:38:19;80365.63;;;9.15;81.39
62680;BME280;68213;40.528;44.712;2023-09-12T02:39:20;80361.75;;;9.16;81.24
62680;BME280;68213;40.528;44.712;2023-09-12T02:40:21;80353.44;;;9.20;81.20
62680;BME280;68213;40.528;44.712;2023-09-12T02:41:22;80359.56;;;9.25;80.79
62680;BME280;68213;40.528;44.712;2023-09-12T02:42:23;80343.28;;;9.14;80.08
62680;BME280;68213;40.528;44.712;2023-09-12T02:43:24;80318.44;;;9.03;80.07
62680;BME280;68213;40.528;44.712;2023-09-12T02:44:25;80361.28;;;9.20;79.62
62680;BME280;68213;40.528;44.712;2023-09-12T02:45:25;80357.88;;;9.17;80.29
62680;BME280;68213;40.528;44.712;2023-09-12T02:46:26;80348.75;;;9.18;79.90
62680;BME280;68213;40.528;44.712;2023-09-12T02:47:26;80358.09;;;9.21;80.13
62680;BME280;68213;40.528;44.712;2023-09-12T02:48:27;80358.78;;;9.22;79.67
62680;BME280;68213;40.528;44.712;2023-09-12T02:49:28;80356.25;;;9.24;79.87
62680;BME280;68213;40.528;44.712;2023-09-12T02:50:28;80351.25;;;9.28;80.00
62680;BME280;68213;40.528;44.712;2023-09-12T02:51:32;80327.22;;;9.08;80.08
62680;BME280;68213;40.528;44.712;2023-09-12T02:52:33;80350.78;;;9.32;80.13
62680;BME280;68213;40.528;44.712;2023-09-12T02:53:34;80346.22;;;9.32;79.91
62680;BME280;68213;40.528;44.712;2023-09-12T02:54:34;80349.19;;;9.27;81.01
62680;BME280;68213;40.528;44.712;2023-09-12T02:55:39;80316.84;;;9.10;81.13
62680;BME280;68213;40.528;44.712;2023-09-12T02:56:40;80358.06;;;9.33;80.51
62680;BME280;68213;40.528;44.712;2023-09-12T02:57:41;80351.09;;;9.38;80.19
62680;BME280;68213;40.528;44.712;2023-09-12T02:58:41;80355.22;;;9.41;79.85
62680;BME280;68213;40.528;44.712;2023-09-12T02:59:42;80356.66;;;9.44;79.83
62680;BME280;68213;40.528;44.712;2023-09-12T03:00:42;80355.53;;;9.47;79.54
62680;BME280;68213;40.528;44.712;2023-09-12T03:01:43;80314.31;;;9.12;79.52
62680;BME280;68213;40.528;44.712;2023-09-12T03:02:44;80357.81;;;9.53;79.47
62680;BME280;68213;40.528;44.712;2023-09-12T03:03:48;80363.13;;;9.55;79.63
62680;BME280;68213;40.528;44.712;2023-09-12T03:04:49;80352.56;;;9.53;79.26
62680;BME280;68213;40.528;44.712;2023-09-12T03:05:58;80362.47;;;9.55;79.30
62680;BME280;68213;40.528;44.712;2023-09-12T03:06:58;80360.50;;;9.55;79.19
62680;BME280;68213;40.528;44.712;2023-09-12T03:07:59;80365.41;;;9.61;79.24
62680;BME280;68213;40.528;44.712;2023-09-12T03:09:00;80364.84;;;9.62;79.05
62680;BME280;68213;40.528;44.712;2023-09-12T03:10:01;80346.28;;;9.46;79.60
62680;BME280;68213;40.528;44.712;2023-09-12T03:11:02;80369.63;;;9.66;79.13
62680;BME280;68213;40.528;44.712;2023-09-12T03:12:04;80366.44;;;9.67;78.86
62680;BME280;68213;40.528;44.712;2023-09-12T03:13:05;80361.22;;;9.56;79.20
62680;BME280;68213;40.528;44.712;2023-09-12T03:14:05;80369.63;;;9.66;79.36
62680;BME280;68213;40.528;44.712;2023-09-12T03:15:07;80369.72;;;9.68;79.06
62680;BME280;68213;40.528;44.712;2023-09-12T03:16:14;80367.09;;;9.68;79.02
62680;BME280;68213;40.528;44.712;2023-09-12T03:17:15;80360.72;;;9.71;78.69
62680;BME280;68213;40.528;44.712;2023-09-12T03:18:16;80355.66;;;9.75;78.35
62680;BME280;68213;40.528;44.712;2023-09-12T03:19:19;80357.03;;;9.76;78.41
62680;BME280;68213;40.528;44.712;2023-09-12T03:20:19;80354.75;;;9.71;78.39
62680;BME280;68213;40.528;44.712;2023-09-12T03:21:20;80359.97;;;9.82;78.28
62680;BME280;68213;40.528;44.712;2023-09-12T03:22:21;80363.28;;;9.83;78.38
62680;BME280;68213;40.528;44.712;2023-09-12T03:23:22;80361.22;;;9.81;78.50
62680;BME280;68213;40.528;44.712;2023-09-12T03:24:22;80363.84;;;9.81;78.49
62680;BME280;68213;40.528;44.712;2023-09-12T03:25:25;80365.22;;;9.82;78.84
62680;BME280;68213;40.528;44.712;2023-09-12T03:26:26;80363.97;;;9.83;78.93
62680;BME280;68213;40.528;44.712;2023-09-12T03:27:27;80363.75;;;9.79;79.20
62680;BME280;68213;40.528;44.712;2023-09-12T03:28:28;80362.59;;;9.82;79.19
62680;BME280;68213;40.528;44.712;2023-09-12T03:29:29;80360.09;;;9.84;79.05
62680;BME280;68213;40.528;44.712;2023-09-12T03:30:30;80368.16;;;9.89;78.87
62680;BME280;68213;40.528;44.712;2023-09-12T03:31:31;80365.06;;;9.92;78.38
62680;BME280;68213;40.528;44.712;2023-09-12T03:32:32;80375.22;;;9.98;78.40
62680;BME280;68213;40.528;44.712;2023-09-12T03:33:33;80374.75;;;10.02;78.10
62680;BME280;68213;40.528;44.712;2023-09-12T03:34:33;80350.25;;;9.85;78.16
62680;BME280;68213;40.528;44.712;2023-09-12T03:35:34;80379.72;;;10.09;77.86
62680;BME280;68213;40.528;44.712;2023-09-12T03:36:35;80383.81;;;10.12;78.24
62680;BME280;68213;40.528;44.712;2023-09-12T03:37:39;80381.41;;;10.16;78.13
62680;BME280;68213;40.528;44.712;2023-09-12T03:38:43;80387.34;;;10.17;78.01
62680;BME280;68213;40.528;44.712;2023-09-12T03:39:43;80382.22;;;10.19;77.53
62680;BME280;68213;40.528;44.712;2023-09-12T03:40:44;80389.50;;;10.21;77.50
62680;BME280;68213;40.528;44.712;2023-09-12T03:41:45;80385.63;;;10.22;77.91
62680;BME280;68213;40.528;44.712;2023-09-12T03:42:45;80383.09;;;10.24;77.53
62680;BME280;68213;40.528;44.712;2023-09-12T03:43:46;80386.50;;;10.26;77.22
62680;BME280;68213;40.528;44.712;2023-09-12T03:44:47;80385.81;;;10.26;77.69
62680;BME280;68213;40.528;44.712;2023-09-12T03:45:48;80384.50;;;10.13;79.06
62680;BME280;68213;40.528;44.712;2023-09-12T03:46:49;80385.31;;;10.15;78.98
62680;BME280;68213;40.528;44.712;2023-09-12T03:47:51;80384.34;;;10.23;78.54
62680;BME280;68213;40.528;44.712;2023-09-12T03:48:51;80389.63;;;10.23;78.44
62680;BME280;68213;40.528;44.712;2023-09-12T03:49:52;80391.97;;;10.30;78.38
62680;BME280;68213;40.528;44.712;2023-09-12T03:50:53;80392.66;;;10.31;78.54
62680;BME280;68213;40.528;44.712;2023-09-12T03:51:53;80398.69;;;10.34;78.42
62680;BME280;68213;40.528;44.712;2023-09-12T03:52:56;80403.38;;;10.35;78.38
62680;BME280;68213;40.528;44.712;2023-09-12T03:53:56;80403.94;;;10.34;78.22
62680;BME280;68213;40.528;44.712;2023-09-12T03:54:57;80403.38;;;10.35;78.98
62680;BME280;68213;40.528;44.712;2023-09-12T03:55:58;80403.38;;;10.35;78.85
62680;BME280;68213;40.528;44.712;2023-09-12T03:56:59;80396.75;;;10.34;78.76
62680;BME280;68213;40.528;44.712;2023-09-12T03:58:00;80402.00;;;10.34;78.38
62680;BME280;68213;40.528;44.712;2023-09-12T03:59:01;80404.88;;;10.38;78.05
62680;BME280;68213;40.528;44.712;2023-09-12T04:00:02;80398.34;;;10.39;77.32
62680;BME280;68213;40.528;44.712;2023-09-12T04:01:06;80400.41;;;10.41;77.39
62680;BME280;68213;40.528;44.712;2023-09-12T04:02:06;80403.81;;;10.43;77.27
62680;BME280;68213;40.528;44.712;2023-09-12T04:03:07;80399.91;;;10.44;76.89
62680;BME280;68213;40.528;44.712;2023-09-12T04:04:08;80400.22;;;10.51;76.80
62680;BME280;68213;40.528;44.712;2023-09-12T04:05:08;80392.22;;;10.48;76.57
62680;BME280;68213;40.528;44.712;2023-09-12T04:06:10;80405.69;;;10.55;77.00
62680;BME280;68213;40.528;44.712;2023-09-12T04:07:11;80396.66;;;10.58;77.49
62680;BME280;68213;40.528;44.712;2023-09-12T04:08:11;80398.00;;;10.59;76.91
62680;BME280;68213;40.528;44.712;2023-09-12T04:09:12;80403.16;;;10.57;76.50
62680;BME280;68213;40.528;44.712;2023-09-12T04:10:13;80392.53;;;10.55;76.57
62680;BME280;68213;40.528;44.712;2023-09-12T04:11:13;80396.53;;;10.56;76.46
62680;BME280;68213;40.528;44.712;2023-09-12T04:12:14;80390.25;;;10.61;76.49
62680;BME280;68213;40.528;44.712;2023-09-12T04:13:15;80389.53;;;10.60;76.36
62680;BME280;68213;40.528;44.712;2023-09-12T04:14:31;80394.22;;;10.62;76.19
62680;BME280;68213;40.528;44.712;2023-09-12T04:15:32;80399.00;;;10.66;76.39
62680;BME280;68213;40.528;44.712;2023-09-12T04:16:32;80393.66;;;10.63;76.92
62680;BME280;68213;40.528;44.712;2023-09-12T04:17:34;80400.47;;;10.69;76.66
62680;BME280;68213;40.528;44.712;2023-09-12T04:18:34;80395.03;;;10.65;77.17
62680;BME280;68213;40.528;44.712;2023-09-12T04:19:35;80401.59;;;10.52;78.74
62680;BME280;68213;40.528;44.712;2023-09-12T04:20:38;80398.19;;;10.49;80.03
62680;BME280;68213;40.528;44.712;2023-09-12T04:21:41;80394.59;;;10.56;80.77
62680;BME280;68213;40.528;44.712;2023-09-12T04:22:42;80396.53;;;10.56;80.59
62680;BME280;68213;40.528;44.712;2023-09-12T04:23:43;80389.34;;;10.56;80.78
62680;BME280;68213;40.528;44.712;2023-09-12T04:24:44;80382.50;;;10.51;80.86
62680;BME280;68213;40.528;44.712;2023-09-12T04:25:46;80391.59;;;10.62;80.88
62680;BME280;68213;40.528;44.712;2023-09-12T04:26:51;80378.66;;;10.66;80.95
62680;BME280;68213;40.528;44.712;2023-09-12T04:27:52;80359.63;;;10.54;80.45
62680;BME280;68213;40.528;44.712;2023-09-12T04:28:52;80381.88;;;10.78;81.10
62680;BME280;68213;40.528;44.712;2023-09-12T04:29:53;80377.88;;;10.77;80.55
62680;BME280;68213;40.528;44.712;2023-09-12T04:31:01;80375.47;;;10.82;81.22
62680;BME280;68213;40.528;44.712;2023-09-12T04:32:03;80374.78;;;10.81;81.65
62680;BME280;68213;40.528;44.712;2023-09-12T04:33:06;80374.66;;;10.65;83.26
62680;BME280;68213;40.528;44.712;2023-09-12T04:34:07;80370.56;;;10.62;83.91
62680;BME280;68213;40.528;44.712;2023-09-12T04:35:08;80376.03;;;10.66;83.89
62680;BME280;68213;40.528;44.712;2023-09-12T04:36:09;80376.13;;;10.68;83.97
62680;BME280;68213;40.528;44.712;2023-09-12T04:37:09;80379.44;;;10.69;83.71
62680;BME280;68213;40.528;44.712;2023-09-12T04:38:10;80374.56;;;10.63;84.67
62680;BME280;68213;40.528;44.712;2023-09-12T04:39:28;80384.56;;;10.53;84.31
62680;BME280;68213;40.528;44.712;2023-09-12T04:40:30;80382.25;;;10.59;84.67
62680;BME280;68213;40.528;44.712;2023-09-12T04:41:31;80378.34;;;10.60;84.69
62680;BME280;68213;40.528;44.712;2023-09-12T04:42:32;80378.19;;;10.44;85.13
62680;BME280;68213;40.528;44.712;2023-09-12T04:43:33;80368.09;;;10.38;85.73
62680;BME280;68213;40.528;44.712;2023-09-12T04:44:39;80352.19;;;10.36;85.00
62680;BME280;68213;40.528;44.712;2023-09-12T04:45:40;80372.88;;;10.56;84.46
62680;BME280;68213;40.528;44.712;2023-09-12T04:46:41;80372.22;;;10.55;84.55
62680;BME280;68213;40.528;44.712;2023-09-12T04:47:46;80375.63;;;10.58;84.57
62680;BME280;68213;40.528;44.712;2023-09-12T04:49:07;80377.88;;;10.63;83.54
62680;BME280;68213;40.528;44.712;2023-09-12T04:50:08;80375.75;;;10.74;83.46
62680;BME280;68213;40.528;44.712;2023-09-12T04:51:09;80377.53;;;10.43;84.51
62680;BME280;68213;40.528;44.712;2023-09-12T04:52:16;80379.88;;;10.51;86.10
62680;BME280;68213;40.528;44.712;2023-09-12T04:53:16;80383.81;;;10.64;85.58
62680;BME280;68213;40.528;44.712;2023-09-12T04:54:19;80381.28;;;10.66;84.35
62680;BME280;68213;40.528;44.712;2023-09-12T04:55:20;80384.63;;;10.81;83.94
62680;BME280;68213;40.528;44.712;2023-09-12T04:56:23;80380.91;;;10.86;82.66
62680;BME280;68213;40.528;44.712;2023-09-12T04:57:24;80388.63;;;10.82;82.51
62680;BME280;68213;40.528;44.712;2023-09-12T04:58:25;80386.19;;;10.86;81.86
62680;BME280;68213;40.528;44.712;2023-09-12T04:59:26;80388.63;;;10.95;81.33
62680;BME280;68213;40.528;44.712;2023-09-12T05:00:29;80397.41;;;11.00;80.72
62680;BME280;68213;40.528;44.712;2023-09-12T05:01:33;80389.81;;;10.92;79.36
62680;BME280;68213;40.528;44.712;2023-09-12T05:02:34;80402.94;;;10.92;80.47
62680;BME280;68213;40.528;44.712;2023-09-12T05:03:35;80375.63;;;10.58;80.51
62680;BME280;68213;40.528;44.712;2023-09-12T05:04:36;80400.19;;;10.76;80.20
62680;BME280;68213;40.528;44.712;2023-09-12T05:05:36;80405.84;;;10.85;79.88
62680;BME280;68213;40.528;44.712;2023-09-12T05:06:37;80399.91;;;10.84;79.53
62680;BME280;68213;40.528;44.712;2023-09-12T05:07:38;80404.88;;;10.92;80.71
62680;BME280;68213;40.528;44.712;2023-09-12T05:08:39;80403.91;;;10.99;81.65
62680;BME280;68213;40.528;44.712;2023-09-12T05:09:40;80404.63;;;11.00;80.71
62680;BME280;68213;40.528;44.712;2023-09-12T05:10:40;80401.88;;;10.98;80.81
62680;BME280;68213;40.528;44.712;2023-09-12T05:11:41;80405.41;;;11.02;80.58
62680;BME280;68213;40.528;44.712;2023-09-12T05:12:48;80413.47;;;10.92;80.92
62680;BME280;68213;40.528;44.712;2023-09-12T05:13:52;80414.44;;;10.99;80.71
62680;BME280;68213;40.528;44.712;2023-09-12T05:14:53;80412.41;;;10.98;80.98
62680;BME280;68213;40.528;44.712;2023-09-12T05:15:54;80409.25;;;10.73;81.67
62680;BME280;68213;40.528;44.712;2023-09-12T05:16:54;80417.88;;;10.62;82.85
62680;BME280;68213;40.528;44.712;2023-09-12T05:18:01;80424.50;;;10.63;82.78
62680;BME280;68213;40.528;44.712;2023-09-12T05:19:02;80424.25;;;10.45;83.46
62680;BME280;68213;40.528;44.712;2023-09-12T05:20:03;80413.69;;;10.31;83.88
62680;BME280;68213;40.528;44.712;2023-09-12T05:21:07;80418.88;;;10.43;83.79
62680;BME280;68213;40.528;44.712;2023-09-12T05:22:08;80415.00;;;10.44;83.76
62680;BME280;68213;40.528;44.712;2023-09-12T05:23:08;80415.78;;;10.46;83.99
62680;BME280;68213;40.528;44.712;2023-09-12T05:24:11;80412.94;;;10.42;84.25
62680;BME280;68213;40.528;44.712;2023-09-12T05:25:12;80411.25;;;10.35;85.22
62680;BME280;68213;40.528;44.712;2023-09-12T05:26:12;80417.88;;;10.36;85.44
62680;BME280;68213;40.528;44.712;2023-09-12T05:27:13;80415.31;;;10.50;85.20
62680;BME280;68213;40.528;44.712;2023-09-12T05:28:14;80417.44;;;10.54;84.58
62680;BME280;68213;40.528;44.712;2023-09-12T05:29:16;80418.34;;;10.58;85.20
62680;BME280;68213;40.528;44.712;2023-09-12T05:30:19;80427.34;;;10.67;83.80
62680;BME280;68213;40.528;44.712;2023-09-12T05:31:19;80420.44;;;10.74;83.14
62680;BME280;68213;40.528;44.712;2023-09-12T05:32:25;80422.38;;;10.73;81.78
62680;BME280;68213;40.528;44.712;2023-09-12T05:33:28;80422.09;;;10.67;81.99
62680;BME280;68213;40.528;44.712;2023-09-12T05:34:29;80419.88;;;10.75;81.37